sensor_id;sensor_type;location;lat;lon;timestamp;temperature;humidity
36434;DHT22;31691;51.972;5.672;2023-08-06T00:02:10;22.10;99.90
36434;DHT22;31691;51.972;5.672;2023-08-06T00:07:12;22.20;99.90
36434;DHT22;31691;51.972;5.672;2023-08-06T00:12:14;22.30;99.90
36434;DHT22;31691;51.972;5.672;2023-08-06T00:17:16;22.40;99.90
36434;DHT22;31691;51.972;5.672;2023-08-06T00:22:19;22.40;99.90
36434;DHT22;31691;51.972;5.672;2023-08-06T00:27:21;22.50;99.90
36434;DHT22;31691;51.972;5.672;2023-08-06T00:32:23;22.20;99.90
36434;DHT22;31691;51.972;5.672;2023-08-06T00:37:25;22.20;99.90
36434;DHT22;31691;51.972;5.672;2023-08-06T00:42:27;22.30;99.90
36434;DHT22;31691;51.972;5.672;2023-08-06T00:47:29;22.60;99.90
36434;DHT22;31691;51.972;5.672;2023-08-06T00:52:32;22.50;99.90
36434;DHT22;31691;51.972;5.672;2023-08-06T00:57:34;22.60;99.90
36434;DHT22;31691;51.972;5.672;2023-08-06T01:02:37;22.80;99.90
36434;DHT22;31691;51.972;5.672;2023-08-06T01:13:35;22.40;99.90
36434;DHT22;31691;51.972;5.672;2023-08-06T01:18:40;22.40;99.90
36434;DHT22;31691;51.972;5.672;2023-08-06T01:23:43;22.30;99.90
36434;DHT22;31691;51.972;5.672;2023-08-06T01:28:56;22.30;99.90
36434;DHT22;31691;51.972;5.672;2023-08-06T01:34:03;22.20;99.90
36434;DHT22;31691;51.972;5.672;2023-08-06T01:39:06;22.20;99.90
36434;DHT22;31691;51.972;5.672;2023-08-06T01:44:09;22.10;99.90
36434;DHT22;31691;51.972;5.672;2023-08-06T01:49:11;22.10;99.90
36434;DHT22;31691;51.972;5.672;2023-08-06T01:54:13;21.90;99.90
36434;DHT22;31691;51.972;5.672;2023-08-06T01:59:15;21.90;99.90
36434;DHT22;31691;51.972;5.672;2023-08-06T02:04:17;21.90;99.90
36434;DHT22;31691;51.972;5.672;2023-08-06T02:09:20;21.70;99.90
36434;DHT22;31691;51.972;5.672;2023-08-06T02:14:22;21.30;99.90
36434;DHT22;31691;51.972;5.672;2023-08-06T02:19:24;20.60;99.90
36434;DHT22;31691;51.972;5.672;2023-08-06T02:24:26;20.80;99.90
36434;DHT22;31691;51.972;5.672;2023-08-06T02:29:28;21.30;99.90
36434;DHT22;31691;51.972;5.672;2023-08-06T02:34:30;21.00;99.90
36434;DHT22;31691;51.972;5.672;2023-08-06T02:39:32;21.00;99.90
36434;DHT22;31691;51.972;5.672;2023-08-06T02:44:35;21.20;99.90
36434;DHT22;31691;51.972;5.672;2023-08-06T02:49:38;21.00;99.90
36434;DHT22;31691;51.972;5.672;2023-08-06T02:54:40;21.10;99.90
36434;DHT22;31691;51.972;5.672;2023-08-06T02:59:42;21.20;99.90
36434;DHT22;31691;51.972;5.672;2023-08-06T03:04:44;21.00;99.90
36434;DHT22;31691;51.972;5.672;2023-08-06T03:09:46;21.40;99.90
36434;DHT22;31691;51.972;5.672;2023-08-06T03:14:48;21.40;99.90
36434;DHT22;31691;51.972;5.672;2023-08-06T03:19:50;21.80;99.90
36434;DHT22;31691;51.972;5.672;2023-08-06T03:24:53;21.70;99.90
36434;DHT22;31691;51.972;5.672;2023-08-06T03:29:55;21.80;99.90
36434;DHT22;31691;51.972;5.672;2023-08-06T03:34:57;21.40;99.90
36434;DHT22;31691;51.972;5.672;2023-08-06T03:39:59;21.40;99.90
36434;DHT22;31691;51.972;5.672;2023-08-06T03:45:01;21.60;99.90
36434;DHT22;31691;51.972;5.672;2023-08-06T03:50:04;21.70;99.90
36434;DHT22;31691;51.972;5.672;2023-08-06T03:55:06;22.00;99.90
36434;DHT22;31691;51.972;5.672;2023-08-06T04:00:09;22.10;99.90
36434;DHT22;31691;51.972;5.672;2023-08-06T04:05:12;22.10;99.90
36434;DHT22;31691;51.972;5.672;2023-08-06T04:10:14;22.00;99.90
36434;DHT22;31691;51.972;5.672;2023-08-06T04:15:16;22.20;99.90
36434;DHT22;31691;51.972;5.672;2023-08-06T04:20:18;22.20;99.90
36434;DHT22;31691;51.972;5.672;2023-08-06T04:25:20;21.50;99.90
36434;DHT22;31691;51.972;5.672;2023-08-06T04:30:22;21.30;99.90
36434;DHT22;31691;51.972;5.672;2023-08-06T04:35:25;21.60;99.90
36434;DHT22;31691;51.972;5.672;2023-08-06T04:40:27;21.00;99.90
36434;DHT22;31691;51.972;5.672;2023-08-06T04:45:29;20.70;99.90
36434;DHT22;31691;51.972;5.672;2023-08-06T04:50:31;20.70;99.90
36434;DHT22;31691;51.972;5.672;2023-08-06T04:55:33;20.90;99.90
36434;DHT22;31691;51.972;5.672;2023-08-06T05:00:35;20.90;99.90
36434;DHT22;31691;51.972;5.672;2023-08-06T05:05:39;20.80;99.90
36434;DHT22;31691;51.972;5.672;2023-08-06T05:10:43;20.60;99.90
36434;DHT22;31691;51.972;5.672;2023-08-06T05:15:46;20.70;99.90
36434;DHT22;31691;51.972;5.672;2023-08-06T05:20:48;21.40;99.90
36434;DHT22;31691;51.972;5.672;2023-08-06T05:25:50;22.20;99.90
36434;DHT22;31691;51.972;5.672;2023-08-06T05:30:53;22.60;99.90
36434;DHT22;31691;51.972;5.672;2023-08-06T05:35:55;23.10;99.90
36434;DHT22;31691;51.972;5.672;2023-08-06T05:40:57;23.30;99.90
36434;DHT22;31691;51.972;5.672;2023-08-06T05:45:59;23.30;99.90
36434;DHT22;31691;51.972;5.672;2023-08-06T05:51:01;23.50;99.90
36434;DHT22;31691;51.972;5.672;2023-08-06T05:56:03;23.70;99.90
36434;DHT22;31691;51.972;5.672;2023-08-06T06:01:05;23.60;99.90
36434;DHT22;31691;51.972;5.672;2023-08-06T06:06:08;23.50;99.90
36434;DHT22;31691;51.972;5.672;2023-08-06T06:11:10;23.70;99.90
36434;DHT22;31691;51.972;5.672;2023-08-06T06:16:12;23.60;99.90
36434;DHT22;31691;51.972;5.672;2023-08-06T06:21:14;23.40;99.90
36434;DHT22;31691;51.972;5.672;2023-08-06T06:26:18;23.00;99.90
36434;DHT22;31691;51.972;5.672;2023-08-06T06:31:20;23.00;99.90
36434;DHT22;31691;51.972;5.672;2023-08-06T06:36:22;22.60;99.90
36434;DHT22;31691;51.972;5.672;2023-08-06T06:41:25;22.90;99.90
36434;DHT22;31691;51.972;5.672;2023-08-06T06:46:28;23.10;99.90
36434;DHT22;31691;51.972;5.672;2023-08-06T06:51:30;23.30;99.90
36434;DHT22;31691;51.972;5.672;2023-08-06T06:56:34;23.50;99.90
36434;DHT22;31691;51.972;5.672;2023-08-06T07:01:36;23.70;99.90
36434;DHT22;31691;51.972;5.672;2023-08-06T07:06:38;23.90;99.90
36434;DHT22;31691;51.972;5.672;2023-08-06T07:11:40;24.00;99.90
36434;DHT22;31691;51.972;5.672;2023-08-06T07:16:45;24.00;99.90
36434;DHT22;31691;51.972;5.672;2023-08-06T07:21:47;24.10;99.90
36434;DHT22;31691;51.972;5.672;2023-08-06T07:26:50;24.10;99.90
36434;DHT22;31691;51.972;5.672;2023-08-06T07:31:52;24.30;99.90
36434;DHT22;31691;51.972;5.672;2023-08-06T07:36:54;24.40;99.90
36434;DHT22;31691;51.972;5.672;2023-08-06T07:41:57;24.40;99.90
36434;DHT22;31691;51.972;5.672;2023-08-06T07:46:59;24.50;99.90
36434;DHT22;31691;51.972;5.672;2023-08-06T07:52:01;24.70;99.90
36434;DHT22;31691;51.972;5.672;2023-08-06T07:57:05;24.80;99.90
36434;DHT22;31691;51.972;5.672;2023-08-06T08:02:07;24.60;99.90
36434;DHT22;31691;51.972;5.672;2023-08-06T08:07:10;24.30;99.90
36434;DHT22;31691;51.972;5.672;2023-08-06T08:12:13;24.00;99.90
36434;DHT22;31691;51.972;5.672;2023-08-06T08:17:15;23.80;99.90
36434;DHT22;31691;51.972;5.672;2023-08-06T08:22:17;23.70;99.90
36434;DHT22;31691;51.972;5.672;2023-08-06T08:27:19;23.40;99.90
36434;DHT22;31691;51.972;5.672;2023-08-06T08:32:21;23.40;99.90
36434;DHT22;31691;51.972;5.672;2023-08-06T08:37:24;23.30;99.90
36434;DHT22;31691;51.972;5.672;2023-08-06T08:42:26;23.30;99.90
36434;DHT22;31691;51.972;5.672;2023-08-06T08:47:28;23.00;99.90
36434;DHT22;31691;51.972;5.672;2023-08-06T08:52:31;22.70;99.90
36434;DHT22;31691;51.972;5.672;2023-08-06T08:57:35;22.40;99.90
36434;DHT22;31691;51.972;5.672;2023-08-06T09:02:39;22.20;99.90
36434;DHT22;31691;51.972;5.672;2023-08-06T09:07:43;22.20;99.90
36434;DHT22;31691;51.972;5.672;2023-08-06T09:12:51;21.90;99.90
36434;DHT22;31691;51.972;5.672;2023-08-06T09:17:54;21.70;99.90
36434;DHT22;31691;51.972;5.672;2023-08-06T09:22:56;21.40;99.90
36434;DHT22;31691;51.972;5.672;2023-08-06T09:27:58;21.20;99.90
36434;DHT22;31691;51.972;5.672;2023-08-06T09:33:01;20.90;99.90
36434;DHT22;31691;51.972;5.672;2023-08-06T09:38:07;20.70;99.90
36434;DHT22;31691;51.972;5.672;2023-08-06T09:43:11;20.70;99.90
36434;DHT22;31691;51.972;5.672;2023-08-06T09:48:14;20.60;99.90
36434;DHT22;31691;51.972;5.672;2023-08-06T09:53:16;20.50;99.90
36434;DHT22;31691;51.972;5.672;2023-08-06T09:58:21;20.30;99.90
36434;DHT22;31691;51.972;5.672;2023-08-06T10:03:25;20.10;99.90
36434;DHT22;31691;51.972;5.672;2023-08-06T10:08:28;19.90;99.90
36434;DHT22;31691;51.972;5.672;2023-08-06T10:13:31;20.00;99.90
36434;DHT22;31691;51.972;5.672;2023-08-06T10:18:37;20.00;99.90
36434;DHT22;31691;51.972;5.672;2023-08-06T10:23:41;20.30;99.90
36434;DHT22;31691;51.972;5.672;2023-08-06T10:28:43;20.30;99.90
36434;DHT22;31691;51.972;5.672;2023-08-06T10:33:46;20.30;99.90
36434;DHT22;31691;51.972;5.672;2023-08-06T10:38:49;20.40;99.90
36434;DHT22;31691;51.972;5.672;2023-08-06T10:43:52;20.30;99.90
36434;DHT22;31691;51.972;5.672;2023-08-06T10:48:54;20.30;99.90
36434;DHT22;31691;51.972;5.672;2023-08-06T10:53:56;20.50;99.90
36434;DHT22;31691;51.972;5.672;2023-08-06T10:58:59;20.60;99.90
36434;DHT22;31691;51.972;5.672;2023-08-06T11:04:03;20.60;99.90
36434;DHT22;31691;51.972;5.672;2023-08-06T11:09:07;20.30;99.90
36434;DHT22;31691;51.972;5.672;2023-08-06T11:14:14;20.30;99.90
36434;DHT22;31691;51.972;5.672;2023-08-06T11:19:17;20.60;99.90
36434;DHT22;31691;51.972;5.672;2023-08-06T11:24:19;20.40;99.90
36434;DHT22;31691;51.972;5.672;2023-08-06T11:29:21;20.60;99.90
36434;DHT22;31691;51.972;5.672;2023-08-06T11:34:25;20.90;99.90
36434;DHT22;31691;51.972;5.672;2023-08-06T11:39:27;21.00;99.90
36434;DHT22;31691;51.972;5.672;2023-08-06T11:44:31;20.70;99.90
36434;DHT22;31691;51.972;5.672;2023-08-06T11:55:07;20.60;99.90
36434;DHT22;31691;51.972;5.672;2023-08-06T12:00:13;20.50;99.90
36434;DHT22;31691;51.972;5.672;2023-08-06T12:05:17;20.60;99.90
36434;DHT22;31691;51.972;5.672;2023-08-06T12:10:24;20.70;99.90
36434;DHT22;31691;51.972;5.672;2023-08-06T12:15:26;20.70;99.90
36434;DHT22;31691;51.972;5.672;2023-08-06T12:20:28;20.90;99.90
36434;DHT22;31691;51.972;5.672;2023-08-06T12:25:31;21.10;99.90
36434;DHT22;31691;51.972;5.672;2023-08-06T12:30:33;20.70;99.90
36434;DHT22;31691;51.972;5.672;2023-08-06T12:35:35;20.60;99.90
36434;DHT22;31691;51.972;5.672;2023-08-06T12:40:37;20.40;99.90
36434;DHT22;31691;51.972;5.672;2023-08-06T12:45:44;20.50;99.90
36434;DHT22;31691;51.972;5.672;2023-08-06T12:50:46;20.70;99.90
36434;DHT22;31691;51.972;5.672;2023-08-06T12:55:49;20.80;99.90
36434;DHT22;31691;51.972;5.672;2023-08-06T13:00:51;20.70;99.90
36434;DHT22;31691;51.972;5.672;2023-08-06T13:05:53;20.80;99.90
36434;DHT22;31691;51.972;5.672;2023-08-06T13:10:55;20.80;99.90
36434;DHT22;31691;51.972;5.672;2023-08-06T13:15:57;21.00;99.90
36434;DHT22;31691;51.972;5.672;2023-08-06T13:20:59;21.10;99.90
36434;DHT22;31691;51.972;5.672;2023-08-06T13:26:01;21.20;99.90
36434;DHT22;31691;51.972;5.672;2023-08-06T13:31:04;21.20;99.90
36434;DHT22;31691;51.972;5.672;2023-08-06T13:36:06;21.30;99.90
36434;DHT22;31691;51.972;5.672;2023-08-06T13:41:08;21.40;99.90
36434;DHT22;31691;51.972;5.672;2023-08-06T13:46:11;21.70;99.90
36434;DHT22;31691;51.972;5.672;2023-08-06T13:51:19;22.00;99.90
36434;DHT22;31691;51.972;5.672;2023-08-06T13:56:23;22.20;99.90
36434;DHT22;31691;51.972;5.672;2023-08-06T14:01:25;22.10;99.90
36434;DHT22;31691;51.972;5.672;2023-08-06T14:06:47;22.10;99.90
36434;DHT22;31691;51.972;5.672;2023-08-06T14:11:50;22.00;99.90
36434;DHT22;31691;51.972;5.672;2023-08-06T14:16:52;21.90;99.90
36434;DHT22;31691;51.972;5.672;2023-08-06T14:21:55;21.90;99.90
36434;DHT22;31691;51.972;5.672;2023-08-06T14:26:57;21.60;99.90
36434;DHT22;31691;51.972;5.672;2023-08-06T14:31:59;21.40;99.90
36434;DHT22;31691;51.972;5.672;2023-08-06T14:37:01;21.60;99.90
36434;DHT22;31691;51.972;5.672;2023-08-06T14:42:04;21.80;99.90
36434;DHT22;31691;51.972;5.672;2023-08-06T14:47:06;21.80;99.90
36434;DHT22;31691;51.972;5.672;2023-08-06T14:52:09;21.80;99.90
36434;DHT22;31691;51.972;5.672;2023-08-06T14:57:11;21.70;99.90
36434;DHT22;31691;51.972;5.672;2023-08-06T15:02:14;21.60;99.90
36434;DHT22;31691;51.972;5.672;2023-08-06T15:07:16;21.80;99.90
36434;DHT22;31691;51.972;5.672;2023-08-06T15:12:19;21.60;99.90
36434;DHT22;31691;51.972;5.672;2023-08-06T15:17:22;21.50;99.90
36434;DHT22;31691;51.972;5.672;2023-08-06T15:22:25;21.60;99.90
36434;DHT22;31691;51.972;5.672;2023-08-06T15:27:28;21.60;99.90
36434;DHT22;31691;51.972;5.672;2023-08-06T15:32:30;21.80;99.90
36434;DHT22;31691;51.972;5.672;2023-08-06T15:37:32;21.70;99.90
36434;DHT22;31691;51.972;5.672;2023-08-06T15:42:34;21.70;99.90
36434;DHT22;31691;51.972;5.672;2023-08-06T15:47:36;21.70;99.90
36434;DHT22;31691;51.972;5.672;2023-08-06T15:52:42;21.30;99.90
36434;DHT22;31691;51.972;5.672;2023-08-06T15:57:44;20.80;99.90
36434;DHT22;31691;51.972;5.672;2023-08-06T16:02:46;20.40;99.90
36434;DHT22;31691;51.972;5.672;2023-08-06T16:07:50;20.60;99.90
36434;DHT22;31691;51.972;5.672;2023-08-06T16:12:52;20.50;99.90
36434;DHT22;31691;51.972;5.672;2023-08-06T16:17:54;20.50;99.90
36434;DHT22;31691;51.972;5.672;2023-08-06T16:22:57;20.40;99.90
36434;DHT22;31691;51.972;5.672;2023-08-06T16:27:59;20.30;99.90
36434;DHT22;31691;51.972;5.672;2023-08-06T16:33:01;20.00;99.90
36434;DHT22;31691;51.972;5.672;2023-08-06T16:38:03;19.90;99.90
36434;DHT22;31691;51.972;5.672;2023-08-06T16:43:05;20.20;99.90
36434;DHT22;31691;51.972;5.672;2023-08-06T16:48:07;19.70;99.90
36434;DHT22;31691;51.972;5.672;2023-08-06T16:53:10;19.60;99.90
36434;DHT22;31691;51.972;5.672;2023-08-06T16:58:12;20.00;99.90
36434;DHT22;31691;51.972;5.672;2023-08-06T17:03:15;20.10;99.90
36434;DHT22;31691;51.972;5.672;2023-08-06T17:08:17;20.40;99.90
36434;DHT22;31691;51.972;5.672;2023-08-06T17:13:19;20.20;99.90
36434;DHT22;31691;51.972;5.672;2023-08-06T17:18:22;20.00;99.90
36434;DHT22;31691;51.972;5.672;2023-08-06T17:23:24;19.90;99.90
36434;DHT22;31691;51.972;5.672;2023-08-06T17:28:27;19.80;99.90
36434;DHT22;31691;51.972;5.672;2023-08-06T17:33:29;20.00;99.90
36434;DHT22;31691;51.972;5.672;2023-08-06T17:38:31;20.30;99.90
36434;DHT22;31691;51.972;5.672;2023-08-06T17:43:33;20.60;99.90
36434;DHT22;31691;51.972;5.672;2023-08-06T17:48:36;19.70;99.90
36434;DHT22;31691;51.972;5.672;2023-08-06T17:53:38;19.40;99.90
36434;DHT22;31691;51.972;5.672;2023-08-06T17:58:40;19.30;99.90
36434;DHT22;31691;51.972;5.672;2023-08-06T18:03:43;19.40;99.90
36434;DHT22;31691;51.972;5.672;2023-08-06T18:08:48;19.50;99.90
36434;DHT22;31691;51.972;5.672;2023-08-06T18:13:50;19.50;99.90
36434;DHT22;31691;51.972;5.672;2023-08-06T18:18:52;19.70;99.90
36434;DHT22;31691;51.972;5.672;2023-08-06T18:23:55;19.80;99.90
36434;DHT22;31691;51.972;5.672;2023-08-06T18:28:58;20.00;99.90
36434;DHT22;31691;51.972;5.672;2023-08-06T18:34:00;19.80;99.90
36434;DHT22;31691;51.972;5.672;2023-08-06T18:39:03;19.90;99.90
36434;DHT22;31691;51.972;5.672;2023-08-06T18:44:05;19.80;99.90
36434;DHT22;31691;51.972;5.672;2023-08-06T18:49:07;19.80;99.90
36434;DHT22;31691;51.972;5.672;2023-08-06T18:54:09;19.90;99.90
36434;DHT22;31691;51.972;5.672;2023-08-06T18:59:11;19.70;99.90
36434;DHT22;31691;51.972;5.672;2023-08-06T19:04:16;19.60;99.90
36434;DHT22;31691;51.972;5.672;2023-08-06T19:09:18;19.80;99.90
36434;DHT22;31691;51.972;5.672;2023-08-06T19:14:20;19.80;99.90
36434;DHT22;31691;51.972;5.672;2023-08-06T19:19:22;20.00;99.90
36434;DHT22;31691;51.972;5.672;2023-08-06T19:24:24;19.70;99.90
36434;DHT22;31691;51.972;5.672;2023-08-06T19:29:27;19.50;99.90
36434;DHT22;31691;51.972;5.672;2023-08-06T19:34:29;19.40;99.90
36434;DHT22;31691;51.972;5.672;2023-08-06T19:39:31;19.20;99.90
36434;DHT22;31691;51.972;5.672;2023-08-06T19:44:33;19.60;99.90
36434;DHT22;31691;51.972;5.672;2023-08-06T19:49:37;19.30;99.90
36434;DHT22;31691;51.972;5.672;2023-08-06T19:54:39;18.90;99.90
36434;DHT22;31691;51.972;5.672;2023-08-06T19:59:41;18.90;99.90
36434;DHT22;31691;51.972;5.672;2023-08-06T20:04:43;18.90;99.90
36434;DHT22;31691;51.972;5.672;2023-08-06T20:09:46;18.60;99.90
36434;DHT22;31691;51.972;5.672;2023-08-06T20:14:48;19.00;99.90
36434;DHT22;31691;51.972;5.672;2023-08-06T20:19:50;19.00;99.90
36434;DHT22;31691;51.972;5.672;2023-08-06T20:24:52;18.90;99.90
36434;DHT22;31691;51.972;5.672;2023-08-06T20:29:55;19.10;99.90
36434;DHT22;31691;51.972;5.672;2023-08-06T20:34:57;19.30;99.90
36434;DHT22;31691;51.972;5.672;2023-08-06T20:39:59;19.20;99.90
36434;DHT22;31691;51.972;5.672;2023-08-06T20:45:01;19.40;99.90
36434;DHT22;31691;51.972;5.672;2023-08-06T20:50:05;19.20;99.90
36434;DHT22;31691;51.972;5.672;2023-08-06T20:55:07;19.00;99.90
36434;DHT22;31691;51.972;5.672;2023-08-06T21:00:11;18.70;99.90
36434;DHT22;31691;51.972;5.672;2023-08-06T21:05:13;18.70;99.90
36434;DHT22;31691;51.972;5.672;2023-08-06T21:10:15;19.00;99.90
36434;DHT22;31691;51.972;5.672;2023-08-06T21:15:18;19.20;99.90
36434;DHT22;31691;51.972;5.672;2023-08-06T21:20:20;18.80;99.90
36434;DHT22;31691;51.972;5.672;2023-08-06T21:25:23;18.80;99.90
36434;DHT22;31691;51.972;5.672;2023-08-06T21:30:25;18.70;99.90
36434;DHT22;31691;51.972;5.672;2023-08-06T21:35:27;18.70;99.90
36434;DHT22;31691;51.972;5.672;2023-08-06T21:40:33;18.70;99.90
36434;DHT22;31691;51.972;5.672;2023-08-06T21:45:35;18.70;99.90
36434;DHT22;31691;51.972;5.672;2023-08-06T21:50:38;18.70;99.90
36434;DHT22;31691;51.972;5.672;2023-08-06T21:55:40;18.70;99.90
36434;DHT22;31691;51.972;5.672;2023-08-06T22:00:42;18.60;99.90
36434;DHT22;31691;51.972;5.672;2023-08-06T22:05:44;18.60;99.90
36434;DHT22;31691;51.972;5.672;2023-08-06T22:10:48;18.60;99.90
36434;DHT22;31691;51.972;5.672;2023-08-06T22:15:51;18.40;99.90
36434;DHT22;31691;51.972;5.672;2023-08-06T22:20:55;18.70;99.90
36434;DHT22;31691;51.972;5.672;2023-08-06T22:25:58;18.40;99.90
36434;DHT22;31691;51.972;5.672;2023-08-06T22:31:00;18.40;99.90
36434;DHT22;31691;51.972;5.672;2023-08-06T22:36:03;18.50;99.90
36434;DHT22;31691;51.972;5.672;2023-08-06T22:41:05;18.40;99.90
36434;DHT22;31691;51.972;5.672;2023-08-06T22:46:09;18.40;99.90
36434;DHT22;31691;51.972;5.672;2023-08-06T22:51:11;18.50;99.90
36434;DHT22;31691;51.972;5.672;2023-08-06T22:56:13;18.70;99.90
36434;DHT22;31691;51.972;5.672;2023-08-06T23:01:16;18.90;99.90
36434;DHT22;31691;51.972;5.672;2023-08-06T23:06:18;18.90;99.90
36434;DHT22;31691;51.972;5.672;2023-08-06T23:11:20;18.80;99.90
36434;DHT22;31691;51.972;5.672;2023-08-06T23:16:23;18.70;99.90
36434;DHT22;31691;51.972;5.672;2023-08-06T23:21:25;18.70;99.90
36434;DHT22;31691;51.972;5.672;2023-08-06T23:26:27;18.80;99.90
36434;DHT22;31691;51.972;5.672;2023-08-06T23:31:30;18.50;99.90
36434;DHT22;31691;51.972;5.672;2023-08-06T23:36:32;18.60;99.90
36434;DHT22;31691;51.972;5.672;2023-08-06T23:41:34;18.70;99.90
36434;DHT22;31691;51.972;5.672;2023-08-06T23:46:36;18.80;99.90
36434;DHT22;31691;51.972;5.672;2023-08-06T23:51:39;18.90;99.90
36434;DHT22;31691;51.972;5.672;2023-08-06T23:56:41;18.80;99.90
